Time;durP1;ratioP1;P1;durP2;ratioP2;P2;SDS_P1;SDS_P2;PMS_P1;PMS_P2;Temp;Humidity;BMP_temperature;BMP_pressure;BME280_temperature;BME280_humidity;BME280_pressure;Samples;Min_cycle;Max_cycle;Signal;HPM_P1;HPM_P2
2022/06/14 00:00:56;;;;;;;;;10.25;10.25;;;;;17.78;47.68;101348.03;5077330;27;45287;-70
2022/06/14 00:03:33;;;;;;;;;13.00;12.00;;;;;17.81;47.37;101351.38;5076783;27;45424;-71
2022/06/14 00:06:02;;;;;;;;;10.00;10.00;;;;;17.78;47.75;101348.03;5076833;27;45531;-71
2022/06/14 00:08:28;;;;;;;;;11.25;11.25;;;;;17.74;47.38;101342.03;5076636;27;45329;-70
2022/06/14 00:10:56;;;;;;;;;9.00;9.00;;;;;17.74;47.85;101351.81;5076786;27;45607;-70
2022/06/14 00:13:22;;;;;;;;;9.00;8.75;;;;;17.70;47.77;101347.63;5076679;27;46241;-70
2022/06/14 00:15:48;;;;;;;;;7.25;7.25;;;;;17.66;47.84;101344.28;5075520;28;45374;-70
2022/06/14 00:18:15;;;;;;;;;12.75;10.50;;;;;17.64;48.37;101339.03;5075588;28;45352;-70
2022/06/14 00:20:41;;;;;;;;;11.00;11.00;;;;;17.52;48.45;101329.13;5075803;28;45318;-70
2022/06/14 00:23:07;;;;;;;;;9.50;9.50;;;;;17.52;48.85;101342.41;5075205;28;46332;-70
2022/06/14 00:25:37;;;;;;;;;10.50;8.50;;;;;17.45;49.58;101347.22;5076401;27;45405;-69
2022/06/14 00:28:04;;;;;;;;;10.00;10.00;;;;;17.36;49.18;101340.63;5076509;27;45389;-70
2022/06/14 00:30:30;;;;;;;;;10.00;9.75;;;;;17.31;49.79;101342.72;5075176;28;45414;-71
2022/06/14 00:32:56;;;;;;;;;9.25;8.50;;;;;17.22;49.95;101337.91;5076084;28;45721;-70
2022/06/14 00:35:21;;;;;;;;;10.50;9.25;;;;;17.14;50.22;101337.47;5074567;28;45462;-70
2022/06/14 00:37:47;;;;;;;;;9.50;9.50;;;;;17.07;50.38;101340.47;5076327;28;45289;-70
2022/06/14 00:40:15;;;;;;;;;5.25;5.25;;;;;17.05;50.33;101334.41;5075219;28;45315;-70
2022/06/14 00:42:41;;;;;;;;;10.25;7.75;;;;;16.99;50.51;101342.72;5076332;27;46524;-71
2022/06/14 00:45:12;;;;;;;;;7.75;7.75;;;;;16.94;50.77;101350.03;5076266;27;45351;-70
2022/06/14 00:47:51;;;;;;;;;7.25;7.25;;;;;16.83;50.47;101340.00;5076345;28;45357;-70
2022/06/14 00:50:43;;;;;;;;;7.75;7.75;;;;;16.82;50.88;101356.00;5076436;27;45472;-71
2022/06/14 00:53:40;;;;;;;;;7.50;6.00;;;;;16.75;51.03;101352.84;5076055;27;46384;-70
2022/06/14 00:56:22;;;;;;;;;10.00;8.00;;;;;16.68;51.34;101344.31;5075001;27;45289;-73
2022/06/14 00:58:55;;;;;;;;;8.75;8.25;;;;;16.62;51.57;101340.22;5076083;28;45445;-70
2022/06/14 01:01:27;;;;;;;;;7.50;7.50;;;;;16.57;51.46;101330.78;5076334;27;45480;-70
2022/06/14 01:03:58;;;;;;;;;7.25;7.25;;;;;16.48;51.59;101324.16;5075901;27;45639;-71
2022/06/14 01:06:37;;;;;;;;;9.00;7.25;;;;;16.49;51.42;101336.50;5075722;27;45258;-71
2022/06/14 01:09:10;;;;;;;;;8.00;8.00;;;;;16.39;51.97;101329.94;5076025;27;45393;-71
2022/06/14 01:11:47;;;;;;;;;11.75;9.50;;;;;16.42;52.24;101335.97;5075776;27;45259;-71
2022/06/14 01:14:24;;;;;;;;;8.75;8.75;;;;;16.36;52.20;101334.47;5075686;27;45718;-70
2022/06/14 01:16:51;;;;;;;;;9.00;9.00;;;;;16.32;52.49;101332.06;5075549;27;45396;-70
2022/06/14 01:19:26;;;;;;;;;8.00;8.00;;;;;16.28;52.45;101326.06;5076027;27;45358;-70
2022/06/14 01:22:13;;;;;;;;;8.25;8.25;;;;;16.24;52.78;101326.31;5075812;27;45473;-70
2022/06/14 01:24:41;;;;;;;;;8.50;8.50;;;;;16.18;52.86;101328.34;5075499;28;46444;-71
2022/06/14 01:27:09;;;;;;;;;8.00;8.00;;;;;16.15;52.93;101323.19;5075787;27;45415;-72
2022/06/14 01:29:38;;;;;;;;;8.25;6.75;;;;;16.10;52.68;101314.63;5076041;27;45505;-71
2022/06/14 01:32:08;;;;;;;;;6.75;6.75;;;;;16.05;52.93;101309.53;5075868;27;45546;-71
2022/06/14 01:34:39;;;;;;;;;7.00;5.50;;;;;16.04;52.81;101321.09;5075401;27;45720;-71
2022/06/14 01:37:05;;;;;;;;;9.00;6.75;;;;;16.00;52.73;101313.38;5075339;27;45340;-71
2022/06/14 01:39:31;;;;;;;;;5.00;5.00;;;;;16.00;53.03;101305.41;5075370;27;45237;-71
2022/06/14 01:42:28;;;;;;;;;6.00;6.00;;;;;16.01;52.86;101315.09;5075509;27;45260;-72
2022/06/14 01:45:20;;;;;;;;;5.50;5.50;;;;;16.01;53.03;101309.78;5075381;27;45963;-71
2022/06/14 01:47:53;;;;;;;;;6.75;6.75;;;;;16.01;52.82;101310.63;5075396;27;45258;-71
2022/06/14 01:54:15;;;;;;;;;8.00;7.00;;;;;15.98;52.96;101305.47;5057259;27;45311;-70
2022/06/14 01:57:02;;;;;;;;;5.25;5.25;;;;;15.97;53.07;101303.78;5074925;28;46529;-70
2022/06/14 02:00:04;;;;;;;;;5.00;5.00;;;;;15.96;52.83;101295.91;5075023;27;45238;-71
2022/06/14 02:02:49;;;;;;;;;7.50;6.00;;;;;15.91;52.81;101283.72;5073367;28;45513;-71
2022/06/14 02:05:25;;;;;;;;;7.00;6.00;;;;;15.94;52.69;101281.84;5074769;27;45272;-70
2022/06/14 02:07:56;;;;;;;;;5.75;5.75;;;;;15.93;52.64;101280.16;5078031;28;45472;-72
2022/06/14 02:10:49;;;;;;;;;7.00;5.50;;;;;15.91;52.59;101277.56;5081732;27;45302;-70
2022/06/14 02:13:42;;;;;;;;;4.00;4.00;;;;;15.94;52.57;101274.75;5082257;27;45374;-70
2022/06/14 02:16:16;;;;;;;;;6.25;4.75;;;;;15.93;52.63;101269.53;5098399;27;45221;-71
2022/06/14 02:18:51;;;;;;;;;4.00;4.00;;;;;15.94;52.40;101271.25;5080440;28;47208;-71
2022/06/14 02:21:22;;;;;;;;;5.75;4.00;;;;;15.93;52.92;101275.69;5081773;27;45316;-71
2022/06/14 02:23:53;;;;;;;;;5.50;5.50;;;;;15.94;52.91;101276.56;5081931;28;45424;-71
2022/06/14 02:26:28;;;;;;;;;10.50;5.00;;;;;15.91;52.86;101274.91;5081929;27;45495;-71
2022/06/14 02:29:00;;;;;;;;;5.75;5.00;;;;;15.91;52.58;101278.44;5081404;28;45443;-71
2022/06/14 02:31:33;;;;;;;;;7.75;6.00;;;;;15.89;52.92;101276.78;5081409;27;45476;-71
2022/06/14 02:34:24;;;;;;;;;5.75;5.75;;;;;15.89;52.83;101277.63;5081526;27;45343;-70
2022/06/14 02:37:21;;;;;;;;;5.25;5.25;;;;;15.88;52.47;101272.41;5073938;28;45454;-69
2022/06/14 02:40:11;;;;;;;;;5.75;5.75;;;;;15.85;52.96;101276.03;5062092;28;46733;-69
2022/06/14 02:42:44;;;;;;;;;6.00;6.00;;;;;15.83;53.16;101266.44;5081214;28;45352;-71
2022/06/14 02:45:21;;;;;;;;;5.00;5.00;;;;;15.81;53.35;101265.66;5081371;28;45236;-71
2022/06/14 02:48:14;;;;;;;;;5.25;5.25;;;;;15.70;53.86;101268.84;5081426;27;45315;-71
2022/06/14 02:50:51;;;;;;;;;6.00;6.00;;;;;15.66;53.81;101265.53;5081091;27;45321;-71
2022/06/14 02:53:24;;;;;;;;;7.50;6.00;;;;;15.59;53.79;101262.31;5081176;27;45342;-71
2022/06/14 02:55:56;;;;;;;;;6.00;6.00;;;;;15.55;53.98;101275.81;5081338;28;45263;-71
2022/06/14 02:58:24;;;;;;;;;6.00;6.00;;;;;15.50;54.27;101275.19;5081426;27;45391;-71
2022/06/14 03:00:56;;;;;;;;;5.75;5.75;;;;;15.45;54.66;101272.75;5080990;27;46593;-70
2022/06/14 03:03:26;;;;;;;;;7.00;7.00;;;;;15.34;55.00;101263.53;5081137;27;45405;-71
2022/06/14 03:06:17;;;;;;;;;6.50;6.25;;;;;15.29;55.82;101269.97;5079925;28;45716;-70
2022/06/14 03:08:55;;;;;;;;;6.00;6.00;;;;;15.19;55.39;101259.84;5081516;27;45420;-70
2022/06/14 03:11:30;;;;;;;;;7.50;6.75;;;;;15.18;55.48;101255.47;5080787;28;45566;-70
2022/06/14 03:14:13;;;;;;;;;6.25;6.25;;;;;15.17;55.66;101260.88;5081252;27;45299;-70
2022/06/14 03:17:00;;;;;;;;;7.75;6.00;;;;;15.14;55.82;101250.41;5081513;27;45467;-70
2022/06/14 03:19:33;;;;;;;;;7.00;5.50;;;;;15.00;55.71;101235.16;5076842;28;45300;-71
2022/06/14 03:22:22;;;;;;;;;7.25;6.75;;;;;15.13;55.60;101246.88;5077221;27;46653;-71
2022/06/14 03:25:13;;;;;;;;;7.25;5.50;;;;;15.17;55.20;101244.97;5075970;28;45490;-72
2022/06/14 03:27:53;;;;;;;;;7.00;7.00;;;;;15.19;55.18;101240.44;5077513;27;45315;-71
2022/06/14 03:30:25;;;;;;;;;4.50;4.50;;;;;15.24;55.22;101249.03;5077836;27;45292;-71
2022/06/14 03:33:03;;;;;;;;;4.25;4.25;;;;;15.30;54.83;101253.16;5077345;27;45219;-70
2022/06/14 03:35:47;;;;;;;;;6.00;6.00;;;;;15.31;54.89;101258.38;5077229;27;45475;-71
2022/06/14 03:38:21;;;;;;;;;6.00;6.00;;;;;15.33;54.62;101247.69;5077313;27;45324;-70
2022/06/14 03:40:47;;;;;;;;;5.25;5.25;;;;;15.37;54.65;101246.59;5076359;28;45340;-70
2022/06/14 03:43:14;;;;;;;;;5.00;4.75;;;;;15.39;54.79;101249.19;5077196;28;45584;-70
2022/06/14 03:45:51;;;;;;;;;7.25;5.75;;;;;15.38;54.75;101248.34;5075634;28;45415;-70
2022/06/14 03:48:17;;;;;;;;;6.25;6.00;;;;;15.43;54.63;101245.47;5077192;28;45447;-70
2022/06/14 03:51:15;;;;;;;;;6.00;6.00;;;;;15.43;54.52;101248.09;5077019;27;45433;-70
2022/06/14 03:54:08;;;;;;;;;6.25;5.25;;;;;15.45;54.51;101243.59;5074619;28;47055;-70
2022/06/14 03:56:58;;;;;;;;;6.50;5.00;;;;;15.42;54.87;101247.25;5076824;27;45492;-71
2022/06/14 03:59:38;;;;;;;;;8.00;7.00;;;;;15.39;54.66;101250.06;5077069;27;45314;-71
2022/06/14 04:02:20;;;;;;;;;7.00;7.00;;;;;15.37;55.23;101251.06;5077803;27;45300;-71
2022/06/14 04:04:58;;;;;;;;;6.50;5.50;;;;;15.35;55.38;101248.47;5077127;27;45413;-70
2022/06/14 04:07:42;;;;;;;;;6.00;6.00;;;;;15.30;55.79;101246.06;5076535;27;45399;-71
2022/06/14 04:10:32;;;;;;;;;4.00;2.75;;;;;15.24;55.55;101234.91;5075170;28;45378;-71
2022/06/14 04:13:18;;;;;;;;;7.50;7.50;;;;;15.18;55.95;101238.72;5077283;27;45414;-71
2022/06/14 04:16:00;;;;;;;;;8.00;8.00;;;;;15.12;56.14;101249.63;5076344;27;46495;-71
2022/06/14 04:18:43;;;;;;;;;6.75;6.00;;;;;15.09;56.04;101247.13;5076337;28;45438;-70
2022/06/14 04:21:11;;;;;;;;;7.25;6.00;;;;;14.93;55.85;101226.69;5074867;28;45333;-70
2022/06/14 04:23:48;;;;;;;;;8.50;7.00;;;;;15.04;56.52;101250.00;5076616;27;45535;-70
2022/06/14 04:26:22;;;;;;;;;6.00;6.00;;;;;15.02;56.84;101247.44;5076084;27;46227;-70
2022/06/14 04:28:58;;;;;;;;;7.00;7.00;;;;;14.99;56.52;101247.56;5076416;28;45362;-70
2022/06/14 04:31:28;;;;;;;;;6.50;5.50;;;;;15.02;56.94;101243.91;5075276;27;45305;-70
2022/06/14 04:34:08;;;;;;;;;6.25;6.25;;;;;15.00;56.70;101249.28;5076347;27;45351;-70
2022/06/14 04:36:47;;;;;;;;;6.50;6.00;;;;;14.94;57.18;101244.28;5076104;28;46456;-70
2022/06/14 04:39:20;;;;;;;;;8.25;8.25;;;;;14.98;56.83;101244.97;5076342;27;45393;-71
2022/06/14 04:42:02;;;;;;;;;7.50;7.50;;;;;14.90;56.97;101240.06;5074838;28;45443;-70
2022/06/14 04:44:42;;;;;;;;;11.75;9.25;;;;;14.99;57.02;101242.28;5076324;27;45275;-71
2022/06/14 04:47:38;;;;;;;;;7.00;7.00;;;;;15.01;56.87;101243.06;5075748;27;47123;-70
2022/06/14 04:50:12;;;;;;;;;5.50;5.50;;;;;15.07;56.70;101249.00;5075871;28;45392;-70
2022/06/14 04:52:45;;;;;;;;;20.00;19.00;;;;;15.11;56.68;101237.31;5076113;28;45483;-71
2022/06/14 04:55:23;;;;;;;;;6.00;6.00;;;;;15.15;56.37;101238.88;5076042;28;45336;-70
2022/06/14 04:58:08;;;;;;;;;9.50;7.50;;;;;15.27;56.46;101240.94;5076159;28;46695;-71
2022/06/14 05:00:58;;;;;;;;;6.25;6.25;;;;;15.74;55.95;101243.91;5074007;28;45563;-71
2022/06/14 05:03:37;;;;;;;;;8.75;7.50;;;;;16.34;54.82;101242.59;5072946;28;45333;-71
2022/06/14 05:06:17;;;;;;;;;6.25;6.25;;;;;17.02;53.66;101246.88;5074342;28;45576;-72
2022/06/14 05:08:54;;;;;;;;;5.25;5.25;;;;;17.63;52.48;101238.06;5073696;28;48455;-71
2022/06/14 05:12:16;;;;;;;;;4.50;4.50;;;;;18.30;51.00;101231.41;5075602;28;45456;-70
2022/06/14 05:14:47;;;;;;;;;6.25;6.25;;;;;18.85;50.11;101235.03;5052845;28;45484;-70
2022/06/14 05:17:24;;;;;;;;;6.25;6.25;;;;;19.29;49.56;101222.44;5075093;27;45423;-70
2022/06/14 05:19:58;;;;;;;;;7.50;7.50;;;;;19.77;48.32;101226.34;5075443;28;46187;-70
2022/06/14 05:22:39;;;;;;;;;8.00;7.25;;;;;20.18;46.96;101237.78;5075420;27;45434;-70
2022/06/14 05:25:07;;;;;;;;;9.00;6.25;;;;;20.33;46.63;101226.00;5075609;27;45363;-70
2022/06/14 05:27:55;;;;;;;;;5.75;5.75;;;;;20.44;46.49;101236.78;5075621;27;45264;-70
2022/06/14 05:30:43;;;;;;;;;5.75;5.75;;;;;20.49;46.04;101236.47;5075483;28;46452;-70
2022/06/14 05:33:42;;;;;;;;;6.50;5.00;;;;;20.50;45.52;101239.97;5074991;27;45388;-70
2022/06/14 05:36:38;;;;;;;;;6.75;6.75;;;;;20.43;45.38;101234.25;5055315;27;45461;-71
2022/06/14 05:39:18;;;;;;;;;6.75;6.25;;;;;20.41;45.14;101234.31;5075307;27;45418;-71
2022/06/14 05:41:52;;;;;;;;;8.75;6.25;;;;;20.38;45.09;101242.56;5074811;27;45326;-70
2022/06/14 05:44:31;;;;;;;;;6.50;6.50;;;;;20.42;44.77;101237.88;5074842;27;45300;-70
2022/06/14 05:47:03;;;;;;;;;8.75;6.00;;;;;20.43;44.89;101227.06;5075292;28;45311;-71
2022/06/14 05:49:34;;;;;;;;;12.00;11.75;;;;;20.52;45.12;101238.91;5075131;28;45349;-70
2022/06/14 05:52:13;;;;;;;;;12.50;10.25;;;;;20.50;44.89;101232.84;5075407;27;46501;-71
2022/06/14 05:54:52;;;;;;;;;7.00;5.75;;;;;20.53;44.48;101248.63;5073815;28;46281;-70
2022/06/14 05:57:30;;;;;;;;;5.25;5.00;;;;;20.47;44.54;101246.41;5075150;28;45459;-70
2022/06/14 06:00:05;;;;;;;;;6.25;6.25;;;;;20.33;44.91;101244.72;5075443;28;45335;-71
2022/06/14 06:02:45;;;;;;;;;11.75;10.75;;;;;20.21;45.11;101245.59;5074870;27;46471;-70
2022/06/14 06:05:23;;;;;;;;;7.00;5.75;;;;;20.03;44.54;101243.25;5073858;28;45363;-70
2022/06/14 06:08:24;;;;;;;;;6.50;6.50;;;;;19.84;44.60;101244.50;5075562;27;45383;-71
2022/06/14 06:10:55;;;;;;;;;6.50;6.50;;;;;19.65;45.13;101234.22;5058562;27;45434;-72
2022/06/14 06:13:25;;;;;;;;;9.50;8.00;;;;;19.53;45.70;101243.06;5073965;28;47257;-71
2022/06/14 06:15:56;;;;;;;;;9.50;7.50;;;;;19.43;45.96;101242.81;5075109;27;45424;-71
2022/06/14 06:18:32;;;;;;;;;7.50;7.50;;;;;19.36;46.23;101238.84;5075072;27;45204;-71
2022/06/14 06:21:25;;;;;;;;;7.00;7.00;;;;;19.22;45.82;101237.13;5074919;27;45408;-71
2022/06/14 06:24:09;;;;;;;;;9.50;9.25;;;;;19.08;46.11;101228.19;5074145;28;45600;-71
2022/06/14 06:26:39;;;;;;;;;11.00;10.00;;;;;19.06;46.55;101232.78;5074615;27;45301;-71
2022/06/14 06:29:15;;;;;;;;;5.50;5.50;;;;;18.98;46.57;101225.31;5074320;28;45440;-71
2022/06/14 06:31:43;;;;;;;;;9.00;8.75;;;;;18.96;46.38;101224.50;5074453;28;45553;-70
2022/06/14 06:34:13;;;;;;;;;12.50;11.00;;;;;18.91;46.14;101215.09;5073974;27;45509;-73
2022/06/14 06:36:38;;;;;;;;;7.00;7.00;;;;;18.88;46.38;101224.16;5072864;28;45557;-71
2022/06/14 06:39:16;;;;;;;;;5.00;3.50;;;;;18.90;46.51;101219.59;5074028;27;45385;-71
2022/06/14 06:41:52;;;;;;;;;6.50;6.00;;;;;18.89;46.71;101214.34;5074721;27;45531;-70
2022/06/14 06:44:33;;;;;;;;;8.25;8.25;;;;;18.90;46.35;101208.06;5077562;27;45521;-72
2022/06/14 06:47:05;;;;;;;;;13.25;12.25;;;;;19.01;46.62;101218.91;5086594;27;45380;-72
2022/06/14 06:49:43;;;;;;;;;19.00;14.50;;;;;19.05;46.02;101217.75;5074196;28;45401;-73
2022/06/14 06:52:14;;;;;;;;;5.75;5.75;;;;;18.99;46.04;101212.81;5075186;27;45413;-74
2022/06/14 06:55:00;;;;;;;;;5.50;5.50;;;;;18.95;45.80;101209.47;5075714;27;45680;-74
2022/06/14 06:57:29;;;;;;;;;5.75;5.50;;;;;19.00;45.81;101216.34;5077818;27;45465;-75
2022/06/14 06:59:57;;;;;;;;;7.75;7.75;;;;;19.06;46.20;101224.78;5079110;27;45330;-68
2022/06/14 07:02:40;;;;;;;;;7.75;7.50;;;;;19.16;45.68;101218.88;5098252;27;45656;-73
2022/06/14 07:05:09;;;;;;;;;7.25;7.00;;;;;19.23;45.75;101212.16;5076907;27;46197;-69
2022/06/14 07:07:40;;;;;;;;;6.25;6.25;;;;;19.32;45.82;101224.00;5080660;27;45436;-76
2022/06/14 07:10:45;;;;;;;;;8.00;8.00;;;;;19.39;45.81;101215.50;5074064;28;45535;-75
2022/06/14 07:13:24;;;;;;;;;6.75;6.75;;;;;19.49;45.39;101220.22;5077627;27;45745;-70
2022/06/14 07:16:09;;;;;;;;;13.25;12.00;;;;;19.53;45.14;101208.38;5074950;28;46601;-71
2022/06/14 07:18:43;;;;;;;;;9.25;8.00;;;;;19.59;45.35;101205.28;5076977;27;45377;-74
2022/06/14 07:21:15;;;;;;;;;6.50;6.00;;;;;19.66;44.93;101203.91;5077034;27;45396;-69
2022/06/14 07:23:47;;;;;;;;;9.00;7.25;;;;;19.77;44.56;101204.97;5077242;28;45381;-69
2022/06/14 07:26:18;;;;;;;;;7.00;6.00;;;;;19.89;44.59;101205.94;5075643;28;47662;-69
2022/06/14 07:28:51;;;;;;;;;7.50;7.50;;;;;19.98;44.08;101210.69;5076877;28;45275;-69
2022/06/14 07:31:25;;;;;;;;;7.75;7.75;;;;;20.12;44.08;101201.66;5077126;27;45330;-68
2022/06/14 07:33:51;;;;;;;;;8.00;8.00;;;;;20.19;43.53;101199.44;5077322;27;45399;-69
2022/06/14 07:36:28;;;;;;;;;7.00;7.00;;;;;20.28;43.37;101199.66;5076926;28;46526;-69
2022/06/14 07:39:30;;;;;;;;;6.25;5.75;;;;;20.34;43.01;101201.00;5076936;27;45389;-69
2022/06/14 07:42:28;;;;;;;;;9.00;8.00;;;;;20.48;42.86;101201.81;5068660;27;45311;-69
2022/06/14 07:45:03;;;;;;;;;8.00;7.00;;;;;20.55;43.39;101193.25;5075186;28;45307;-69
2022/06/14 07:47:45;;;;;;;;;9.00;6.75;;;;;20.70;42.63;101195.78;5077172;27;45431;-69
2022/06/14 07:50:25;;;;;;;;;8.75;7.25;;;;;20.65;42.91;101174.72;5077034;27;45837;-70
2022/06/14 07:52:54;;;;;;;;;4.00;4.00;;;;;20.89;42.23;101187.28;5076918;27;45354;-69
2022/06/14 07:55:30;;;;;;;;;7.50;5.50;;;;;21.04;42.69;101195.97;5076812;27;45453;-69
2022/06/14 07:58:13;;;;;;;;;6.00;5.50;;;;;21.11;42.08;101194.53;5075159;28;48381;-70
2022/06/14 08:03:40;;;;;;;;;4.00;4.00;;;;;21.27;42.04;101183.53;5077093;28;45342;-70
2022/06/14 08:06:12;;;;;;;;;4.75;4.75;;;;;21.41;41.52;101182.50;5076515;28;45565;-70
2022/06/14 08:08:42;;;;;;;;;4.00;4.00;;;;;21.45;41.13;101180.41;5076819;27;45439;-70
2022/06/14 08:11:26;;;;;;;;;14.50;12.25;;;;;21.53;41.41;101171.81;5076326;27;45243;-70
2022/06/14 08:14:00;;;;;;;;;7.50;4.75;;;;;21.66;41.22;101177.06;5076701;27;45306;-69
2022/06/14 08:16:27;;;;;;;;;7.25;7.25;;;;;21.74;41.40;101163.97;5076869;27;45503;-69
2022/06/14 08:19:03;;;;;;;;;19.00;17.50;;;;;21.85;40.49;101155.94;5076315;27;46644;-70
2022/06/14 08:21:51;;;;;;;;;8.25;5.50;;;;;21.92;40.40;101175.03;5076719;27;45361;-68
2022/06/14 08:24:23;;;;;;;;;11.50;8.50;;;;;21.96;40.22;101165.78;5076311;27;45331;-70
2022/06/14 08:26:56;;;;;;;;;11.00;7.00;;;;;22.04;40.21;101160.66;5076730;27;45397;-70
2022/06/14 08:29:41;;;;;;;;;7.50;5.50;;;;;22.14;40.48;101158.13;5075984;27;45985;-69
2022/06/14 08:32:25;;;;;;;;;5.25;5.25;;;;;22.26;40.26;101161.63;5074812;28;45366;-73
2022/06/14 08:34:55;;;;;;;;;5.00;5.00;;;;;22.32;40.16;101163.84;5075141;28;45332;-69
2022/06/14 08:37:37;;;;;;;;;7.25;6.75;;;;;22.31;39.65;101155.91;5076352;27;45475;-70
2022/06/14 08:40:15;;;;;;;;;4.75;4.75;;;;;22.32;38.52;101166.50;5076111;27;45322;-71
2022/06/14 08:42:51;;;;;;;;;12.50;10.75;;;;;22.24;39.29;101160.06;5076304;28;45424;-69
2022/06/14 08:45:45;;;;;;;;;11.25;8.00;;;;;22.33;39.12;101157.50;5076302;27;45425;-69
2022/06/14 08:48:41;;;;;;;;;6.50;5.00;;;;;22.46;38.76;101153.84;5075911;28;45453;-70
2022/06/14 08:51:28;;;;;;;;;16.25;13.00;;;;;22.59;38.90;101148.31;5074865;28;46121;-69
2022/06/14 08:54:14;;;;;;;;;6.75;6.75;;;;;22.68;37.82;101152.06;5075628;28;45328;-69
2022/06/14 08:57:00;;;;;;;;;6.50;6.00;;;;;22.80;38.26;101148.38;5075634;28;45298;-68
2022/06/14 08:59:45;;;;;;;;;7.00;7.00;;;;;22.93;37.73;101147.34;5075515;28;45497;-70
2022/06/14 09:02:32;;;;;;;;;6.75;6.75;;;;;22.98;37.44;101148.66;5075581;28;45437;-70
2022/06/14 09:05:26;;;;;;;;;5.25;5.25;;;;;23.07;37.48;101146.19;5075559;28;45247;-70
2022/06/14 09:08:01;;;;;;;;;6.75;5.25;;;;;23.14;37.03;101145.50;5055570;28;45556;-67
2022/06/14 09:10:32;;;;;;;;;9.50;6.00;;;;;23.18;37.35;101154.16;5075649;27;45448;-69
2022/06/14 09:13:20;;;;;;;;;5.25;5.25;;;;;23.23;36.83;101156.44;5075583;28;46062;-70
2022/06/14 09:16:17;;;;;;;;;7.75;6.75;;;;;23.22;36.69;101154.75;5075059;28;45476;-71
2022/06/14 09:18:55;;;;;;;;;15.00;13.50;;;;;23.29;36.72;101155.94;5065844;28;45232;-71
2022/06/14 09:21:45;;;;;;;;;13.50;12.00;;;;;23.33;37.09;101155.56;5075521;28;45580;-71
2022/06/14 09:24:29;;;;;;;;;8.75;7.50;;;;;23.45;37.12;101151.00;5075222;28;46028;-68
2022/06/14 09:27:00;;;;;;;;;8.75;6.75;;;;;23.55;36.45;101144.84;5075096;28;45283;-69
2022/06/14 09:29:55;;;;;;;;;7.50;7.00;;;;;23.60;36.46;101139.91;5075199;28;45500;-72
2022/06/14 09:32:33;;;;;;;;;11.50;9.25;;;;;23.72;36.30;101156.78;5075618;27;45300;-68
2022/06/14 09:35:16;;;;;;;;;7.75;7.75;;;;;23.61;35.69;101155.88;5075272;28;45701;-70
2022/06/14 09:38:03;;;;;;;;;19.25;15.50;;;;;23.60;36.66;101140.75;5075414;28;45393;-72
2022/06/14 09:40:29;;;;;;;;;28.25;23.50;;;;;23.76;36.65;101147.47;5074276;28;45369;-73
2022/06/14 09:43:09;;;;;;;;;8.50;6.75;;;;;23.92;36.14;101137.09;5075666;28;45444;-69
2022/06/14 09:45:41;;;;;;;;;11.75;8.00;;;;;24.05;36.77;101139.56;5075227;28;45395;-74
2022/06/14 09:48:24;;;;;;;;;9.50;8.50;;;;;24.17;35.90;101139.44;5075206;27;45156;-70
2022/06/14 09:51:28;;;;;;;;;10.75;10.75;;;;;24.13;35.15;101138.88;5075005;28;45172;-69
2022/06/14 09:54:30;;;;;;;;;13.00;11.00;;;;;24.03;35.52;101138.84;5056469;28;45494;-69
2022/06/14 09:57:21;;;;;;;;;7.00;7.00;;;;;24.02;35.94;101133.63;5074627;28;46214;-69
2022/06/14 09:59:52;;;;;;;;;9.75;8.00;;;;;24.17;36.59;101140.31;5073038;28;45307;-70
2022/06/14 10:02:26;;;;;;;;;15.75;13.00;;;;;24.30;36.06;101140.03;5074963;28;45497;-69
2022/06/14 10:05:06;;;;;;;;;9.00;8.00;;;;;24.36;35.26;101144.03;5074690;28;45435;-68
2022/06/14 10:07:49;;;;;;;;;21.75;20.25;;;;;24.32;35.05;101132.69;5074496;28;45402;-69
2022/06/14 10:11:02;;;;;;;;;8.50;7.25;;;;;24.36;35.08;101128.72;5074055;27;45278;-69
2022/06/14 10:13:51;;;;;;;;;5.25;5.25;;;;;24.36;35.56;101133.28;5052179;28;45427;-68
2022/06/14 10:17:15;;;;;;;;;11.50;8.75;;;;;24.39;34.59;101129.44;5052159;28;45322;-72
2022/06/14 10:20:10;;;;;;;;;7.00;5.75;;;;;24.43;35.07;101133.59;5051396;27;46749;-71
2022/06/14 10:22:38;;;;;;;;;16.50;16.50;;;;;24.46;34.67;101122.53;5073277;28;45459;-70
2022/06/14 10:25:25;;;;;;;;;7.75;7.75;;;;;24.40;34.55;101120.41;5075324;28;45414;-70
2022/06/14 10:28:12;;;;;;;;;11.50;11.00;;;;;24.34;34.00;101125.31;5073752;28;45421;-71
2022/06/14 10:31:01;;;;;;;;;44.25;37.50;;;;;24.36;34.33;101117.97;5078183;27;46307;-71
2022/06/14 10:34:12;;;;;;;;;35.00;31.25;;;;;24.46;34.99;101125.25;5078109;27;45200;-70
2022/06/14 10:36:40;;;;;;;;;11.00;9.50;;;;;24.64;34.50;101123.53;5078521;27;45362;-69
2022/06/14 10:39:24;;;;;;;;;21.00;18.50;;;;;24.72;35.18;101122.00;5078149;28;45302;-70
2022/06/14 10:42:02;;;;;;;;;17.25;16.50;;;;;24.77;35.33;101114.38;5077947;28;45540;-71
2022/06/14 10:44:59;;;;;;;;;10.25;9.25;;;;;24.76;33.88;101107.28;5077847;27;45231;-71
2022/06/14 10:48:02;;;;;;;;;6.75;6.00;;;;;24.76;34.38;101108.13;5078123;27;45357;-69
2022/06/14 10:50:37;;;;;;;;;12.75;11.50;;;;;24.85;34.16;101098.38;5078077;28;45595;-70
2022/06/14 10:53:20;;;;;;;;;10.00;8.50;;;;;24.83;34.44;101094.97;5077784;27;45246;-69
2022/06/14 10:56:18;;;;;;;;;15.50;12.75;;;;;24.91;34.24;101097.78;5077384;27;45391;-69
2022/06/14 10:59:14;;;;;;;;;8.25;7.25;;;;;25.01;34.04;101088.84;5077798;27;45289;-68
2022/06/14 11:01:58;;;;;;;;;12.75;12.75;;;;;25.09;34.24;101083.59;5078096;27;45379;-70
2022/06/14 11:04:35;;;;;;;;;8.25;7.00;;;;;25.14;33.48;101073.25;5077399;28;46287;-69
2022/06/14 11:07:15;;;;;;;;;9.50;8.50;;;;;25.20;33.36;101075.34;5077632;27;45353;-68
2022/06/14 11:10:10;;;;;;;;;12.50;9.50;;;;;25.32;33.85;101072.47;5076246;28;45260;-69
2022/06/14 11:12:51;;;;;;;;;16.50;15.75;;;;;25.47;33.01;101068.38;5078000;27;45624;-68
2022/06/14 11:15:42;;;;;;;;;24.00;22.50;;;;;25.61;33.41;101066.19;5077386;28;45462;-71
2022/06/14 11:18:30;;;;;;;;;69.00;62.67;;;;;25.75;32.66;101067.53;5077641;28;45453;-70
2022/06/14 11:21:17;;;;;;;;;61.00;49.33;;;;;25.74;32.81;101061.31;5077487;28;45427;-72
2022/06/14 11:23:53;;;;;;;;;12.00;11.00;;;;;25.69;32.33;101050.13;5077746;28;45461;-69
2022/06/14 11:26:51;;;;;;;;;9.75;9.75;;;;;25.70;32.47;101046.44;5077427;28;46235;-70
2022/06/14 11:29:19;;;;;;;;;15.75;14.50;;;;;25.63;31.88;101045.34;5066943;28;45265;-71
2022/06/14 11:32:02;;;;;;;;;6.25;6.25;;;;;25.59;31.95;101043.94;5075795;28;45252;-69
2022/06/14 11:34:46;;;;;;;;;15.25;15.25;;;;;25.65;31.77;101043.34;5077743;27;45409;-68
2022/06/14 11:37:42;;;;;;;;;14.75;13.50;;;;;25.63;32.04;101034.56;5078015;27;45575;-69
2022/06/14 11:40:15;;;;;;;;;11.75;10.75;;;;;25.82;32.10;101038.97;5077139;28;45284;-70
2022/06/14 11:43:18;;;;;;;;;7.50;6.75;;;;;25.89;32.10;101032.00;5076398;28;45170;-70
2022/06/14 11:45:54;;;;;;;;;9.25;8.50;;;;;25.86;31.53;100994.56;5077540;28;45390;-69
2022/06/14 11:48:19;;;;;;;;;8.00;8.00;;;;;25.94;31.82;101023.47;5077315;28;46382;-70
2022/06/14 11:50:54;;;;;;;;;12.25;9.75;;;;;25.93;31.99;101013.69;5077167;27;45403;-70
2022/06/14 11:53:57;;;;;;;;;7.75;7.75;;;;;26.02;32.00;101007.38;5077466;28;45314;-69
2022/06/14 11:56:38;;;;;;;;;6.25;6.25;;;;;26.10;31.75;101001.22;5077304;28;45906;-69
2022/06/14 11:59:27;;;;;;;;;8.25;8.25;;;;;26.15;31.26;101004.34;5076851;27;45386;-68
2022/06/14 12:02:16;;;;;;;;;9.75;8.25;;;;;25.83;31.48;100972.47;5076554;28;45330;-69
2022/06/14 12:05:01;;;;;;;;;7.25;6.00;;;;;25.92;31.73;101002.03;5077346;28;45306;-68
2022/06/14 12:07:36;;;;;;;;;7.00;7.00;;;;;26.03;32.03;100992.06;5077424;28;45306;-69
2022/06/14 12:10:04;;;;;;;;;8.50;8.50;;;;;26.17;31.91;101002.34;5076169;27;46415;-70
2022/06/14 12:12:41;;;;;;;;;8.00;8.00;;;;;26.22;32.10;101001.84;5076604;28;45354;-69
2022/06/14 12:15:12;;;;;;;;;16.25;15.25;;;;;26.21;32.02;100994.78;5074976;28;45415;-69
2022/06/14 12:17:44;;;;;;;;;6.25;6.25;;;;;26.34;32.09;100995.22;5076553;27;45226;-68
2022/06/14 12:20:09;;;;;;;;;8.25;8.25;;;;;26.51;32.12;100984.59;5074889;28;46191;-70
2022/06/14 12:23:01;;;;;;;;;7.25;6.75;;;;;26.64;31.77;100985.03;5076306;27;45329;-69
2022/06/14 12:28:58;;;;;;;;;8.00;8.00;;;;;26.92;32.20;100982.19;5076064;28;45317;-71